Time;durP1;ratioP1;P1;durP2;ratioP2;P2;SDS_P1;SDS_P2;PMS_P1;PMS_P2;Temp;Humidity;BMP_temperature;BMP_pressure;BME280_temperature;BME280_humidity;BME280_pressure;Samples;Min_cycle;Max_cycle;Signal;HPM_P1;HPM_P2
2022/06/05 00:00:21;;;;;;;7.50;5.38;;;;;;;20.70;59.15;99656.31;5011000;28;20044;-72
2022/06/05 00:02:58;;;;;;;5.53;4.47;;;;;;;20.69;59.07;99660.84;5010932;28;20428;-73
2022/06/05 00:05:29;;;;;;;10.00;4.40;;;;;;;20.69;59.22;99655.47;5011283;28;20553;-72
2022/06/05 00:08:03;;;;;;;7.32;5.47;;;;;;;20.64;59.37;99651.53;5009442;28;20059;-72
2022/06/05 00:10:50;;;;;;;6.93;5.25;;;;;;;20.63;59.44;99649.88;5011186;28;20414;-71
2022/06/05 00:13:16;;;;;;;5.38;4.45;;;;;;;20.59;59.50;99654.66;5011008;28;20038;-72
2022/06/05 00:15:41;;;;;;;5.20;4.70;;;;;;;20.59;59.48;99642.09;5010992;28;20045;-72
2022/06/05 00:18:07;;;;;;;7.00;5.30;;;;;;;20.55;59.65;99635.34;4992638;28;20042;-72
2022/06/05 00:20:33;;;;;;;5.28;4.78;;;;;;;20.51;59.87;99633.06;5010843;28;20061;-72
2022/06/05 00:22:58;;;;;;;9.25;5.05;;;;;;;20.51;59.94;99633.06;5010690;28;20038;-72
2022/06/05 00:25:37;;;;;;;5.65;5.05;;;;;;;20.50;59.81;99629.56;4993384;28;20049;-71
2022/06/05 00:28:07;;;;;;;7.38;5.28;;;;;;;20.51;59.67;99627.72;5010236;28;20061;-71
2022/06/05 00:30:58;;;;;;;5.63;4.78;;;;;;;20.51;59.39;99617.84;5006182;28;20109;-72
2022/06/05 00:33:31;;;;;;;6.82;4.97;;;;;;;20.50;59.56;99610.81;4990973;28;20618;-72
2022/06/05 00:36:21;;;;;;;6.68;4.70;;;;;;;20.52;59.33;99618.69;4975644;28;20694;-72
2022/06/05 00:39:09;;;;;;;5.18;4.35;;;;;;;20.52;59.38;99616.00;4990777;28;20486;-72
2022/06/05 00:41:58;;;;;;;5.43;4.93;;;;;;;20.52;59.48;99610.66;4990999;28;20047;-72
2022/06/05 00:44:37;;;;;;;7.22;4.75;;;;;;;20.51;59.46;99603.63;4990749;28;20039;-71
2022/06/05 00:47:04;;;;;;;5.20;4.00;;;;;;;20.51;59.34;99611.66;4990009;28;20110;-72
2022/06/05 00:49:39;;;;;;;5.90;5.00;;;;;;;20.52;59.39;99611.47;4990675;28;20046;-71
2022/06/05 00:52:06;;;;;;;6.47;5.47;;;;;;;20.50;59.74;99608.13;4991180;28;20034;-71
2022/06/05 00:54:32;;;;;;;6.15;4.95;;;;;;;20.49;60.07;99603.75;4990889;28;20749;-71
2022/06/05 00:56:57;;;;;;;6.07;5.13;;;;;;;20.45;60.36;99604.16;4990454;28;20037;-71
2022/06/05 00:59:23;;;;;;;6.82;5.78;;;;;;;20.35;60.59;99599.69;4990815;28;20080;-73
2022/06/05 01:01:49;;;;;;;6.57;5.28;;;;;;;20.30;60.66;99599.25;4984015;28;20038;-73
2022/06/05 01:04:17;;;;;;;6.63;5.57;;;;;;;20.30;60.75;99591.22;4990865;28;20058;-71
2022/06/05 01:06:42;;;;;;;7.45;4.40;;;;;;;20.31;60.39;99578.72;4989892;28;20444;-72
2022/06/05 01:09:07;;;;;;;6.68;5.18;;;;;;;20.34;59.93;99559.66;4991858;28;20129;-73
2022/06/05 01:11:33;;;;;;;10.60;5.28;;;;;;;20.31;60.36;99547.41;4973623;28;20062;-70
2022/06/05 01:14:13;;;;;;;4.75;4.25;;;;;;;20.30;60.33;99540.34;4990904;28;20525;-73
2022/06/05 01:17:13;;;;;;;8.32;5.32;;;;;;;20.32;60.70;99535.69;4989988;28;20041;-71
2022/06/05 01:19:41;;;;;;;7.03;5.70;;;;;;;20.26;60.79;99524.75;4923416;28;20363;-71
2022/06/05 01:22:38;;;;;;;7.78;4.88;;;;;;;20.23;60.78;99509.81;4990456;28;20390;-71
2022/06/05 01:25:15;;;;;;;10.40;5.30;;;;;;;20.22;60.97;99513.47;4962863;28;20105;-74
2022/06/05 01:27:46;;;;;;;8.18;5.75;;;;;;;20.23;60.39;99509.81;4989980;28;20496;-72
2022/06/05 01:30:17;;;;;;;8.43;5.35;;;;;;;20.24;60.46;99506.13;5009608;28;20049;-71
2022/06/05 01:32:45;;;;;;;7.97;5.47;;;;;;;20.22;60.42;99500.09;5009888;28;20059;-71
2022/06/05 01:35:17;;;;;;;6.07;5.47;;;;;;;20.20;60.27;99494.03;5009605;28;20546;-71
2022/06/05 01:38:29;;;;;;;6.32;5.72;;;;;;;20.28;59.83;99487.94;5009046;28;20092;-70
2022/06/05 01:40:58;;;;;;;4.55;4.03;;;;;;;20.31;59.67;99485.84;4998614;28;20044;-71
2022/06/05 01:43:30;;;;;;;4.85;4.43;;;;;;;20.34;59.46;99479.34;5009861;28;20092;-71
2022/06/05 01:45:59;;;;;;;5.75;4.90;;;;;;;20.32;59.59;99478.63;5009158;28;20601;-71
2022/06/05 01:48:34;;;;;;;5.68;5.10;;;;;;;20.29;59.76;99471.75;5009341;28;20038;-71
2022/06/05 01:51:06;;;;;;;;;;;;;;;20.26;59.67;99471.22;5009836;28;20124;-71
2022/06/05 01:53:43;;;;;;;7.32;5.32;;;;;;;20.21;60.34;99466.28;5009997;28;19921;-72
2022/06/05 01:56:12;;;;;;;6.22;5.63;;;;;;;20.21;59.91;99470.81;5009914;28;20401;-71
2022/06/05 01:58:42;;;;;;;5.88;5.00;;;;;;;20.21;59.95;99465.44;5010113;28;20050;-71
2022/06/05 02:01:16;;;;;;;7.68;5.03;;;;;;;20.20;59.85;99456.56;5009853;28;20062;-71
2022/06/05 02:03:48;;;;;;;6.53;4.93;;;;;;;20.19;59.99;99454.03;5009325;28;20033;-71
2022/06/05 02:06:16;;;;;;;5.15;4.65;;;;;;;20.16;59.98;99449.81;5008888;28;20040;-71
2022/06/05 02:08:49;;;;;;;5.90;5.30;;;;;;;20.16;60.02;99441.78;5009374;28;20034;-71
2022/06/05 02:11:30;;;;;;;6.32;5.78;;;;;;;20.14;60.16;99433.91;5009278;28;20033;-71
2022/06/05 02:14:00;;;;;;;5.70;5.10;;;;;;;20.01;60.31;99424.47;5008993;28;20030;-71
2022/06/05 02:16:31;;;;;;;7.43;5.10;;;;;;;20.02;60.47;99416.31;5008206;28;20038;-71
2022/06/05 02:19:02;;;;;;;8.95;6.07;;;;;;;19.98;60.72;99414.91;5009215;28;20468;-71
2022/06/05 02:21:28;;;;;;;5.95;5.40;;;;;;;19.97;60.53;99399.84;5009111;28;20117;-71
2022/06/05 02:23:54;;;;;;;15.57;6.55;;;;;;;19.93;60.92;99396.63;5001305;28;20457;-71
2022/06/05 02:26:19;;;;;;;8.90;6.18;;;;;;;19.90;61.16;99396.91;4989044;28;20541;-71
2022/06/05 02:28:44;;;;;;;6.72;6.10;;;;;;;19.85;61.32;99383.13;5009289;28;20037;-71
2022/06/05 02:31:21;;;;;;;7.25;6.03;;;;;;;19.81;61.30;99384.41;5011573;28;20398;-71
2022/06/05 02:33:49;;;;;;;6.47;5.88;;;;;;;19.73;61.42;99374.41;5008772;28;20030;-70
2022/06/05 02:36:34;;;;;;;11.13;6.15;;;;;;;19.76;61.82;99372.44;5012039;28;20141;-71
2022/06/05 02:39:26;;;;;;;10.77;6.68;;;;;;;19.66;62.03;99369.75;5012724;28;20398;-71
2022/06/05 02:42:25;;;;;;;7.45;5.93;;;;;;;19.64;62.06;99369.06;5012422;28;20500;-70
2022/06/05 02:45:01;;;;;;;6.43;5.82;;;;;;;19.66;62.01;99367.94;5012526;28;20060;-71
2022/06/05 02:47:53;;;;;;;6.50;5.90;;;;;;;19.62;62.03;99366.53;5011911;28;20064;-71
2022/06/05 02:50:26;;;;;;;6.57;5.38;;;;;;;19.59;62.08;99363.31;5005501;28;20042;-70
2022/06/05 02:52:58;;;;;;;8.13;5.90;;;;;;;19.58;62.20;99366.97;5012517;28;20045;-71
2022/06/05 02:55:24;;;;;;;8.27;6.93;;;;;;;19.49;62.56;99361.50;5012751;28;20084;-70
2022/06/05 02:57:49;;;;;;;10.00;5.93;;;;;;;19.48;62.27;99365.16;5011994;28;20217;-71
2022/06/05 03:00:19;;;;;;;8.20;5.43;;;;;;;19.46;62.49;99361.78;5012298;28;20072;-72
2022/06/05 03:05:29;;;;;;;6.70;5.38;;;;;;;19.50;62.33;99351.66;5012570;28;20103;-71
2022/06/05 03:07:54;;;;;;;7.57;6.07;;;;;;;19.48;62.55;99341.09;5011934;28;20026;-71
2022/06/05 03:10:20;;;;;;;7.85;6.47;;;;;;;19.46;62.76;99344.91;5012286;28;20057;-72
2022/06/05 03:12:45;;;;;;;7.15;6.00;;;;;;;19.39;63.05;99336.59;5012539;28;20044;-71
2022/06/05 03:15:15;;;;;;;7.57;5.95;;;;;;;19.40;63.09;99334.78;5012894;28;20038;-71
2022/06/05 03:17:44;;;;;;;8.25;5.47;;;;;;;19.44;62.76;99342.38;5011912;28;20109;-70
2022/06/05 03:20:12;;;;;;;8.40;6.35;;;;;;;19.45;62.84;99338.72;5012320;28;20042;-71
2022/06/05 03:22:37;;;;;;;8.38;5.95;;;;;;;19.43;62.92;99335.34;5012347;28;20025;-71
2022/06/05 03:25:03;;;;;;;6.50;5.60;;;;;;;19.46;62.97;99334.19;5012156;28;20041;-71
2022/06/05 03:27:30;;;;;;;5.88;5.07;;;;;;;19.47;62.84;99341.25;5011402;28;20038;-71
2022/06/05 03:29:56;;;;;;;5.47;4.97;;;;;;;19.45;63.15;99348.56;5011991;28;20026;-71
2022/06/05 03:32:22;;;;;;;6.85;5.28;;;;;;;19.47;62.95;99346.59;5012394;28;20038;-71
2022/06/05 03:34:47;;;;;;;8.75;6.47;;;;;;;19.43;62.96;99348.69;5012354;28;20044;-71
2022/06/05 03:37:12;;;;;;;7.07;6.18;;;;;;;19.38;63.31;99337.59;5009432;28;20417;-71
2022/06/05 03:39:38;;;;;;;7.22;6.53;;;;;;;19.35;63.41;99347.75;5010304;28;20046;-71
2022/06/05 03:42:03;;;;;;;8.50;6.40;;;;;;;19.33;63.47;99352.38;5011310;28;20060;-71
2022/06/05 03:44:29;;;;;;;7.88;5.32;;;;;;;19.32;63.54;99346.19;5011982;28;20489;-70
2022/06/05 03:46:54;;;;;;;6.47;5.82;;;;;;;19.32;63.61;99346.19;5011402;28;20100;-71
2022/06/05 03:49:19;;;;;;;7.60;5.70;;;;;;;19.34;63.52;99341.53;5011343;28;20453;-71
2022/06/05 03:51:45;;;;;;;7.57;6.68;;;;;;;19.34;63.31;99346.88;5011777;28;20473;-71
2022/06/05 03:54:11;;;;;;;7.32;6.20;;;;;;;19.34;63.58;99336.19;5010691;28;20044;-71
2022/06/05 03:56:37;;;;;;;7.00;6.32;;;;;;;19.33;63.65;99334.50;5011052;28;20037;-71
2022/06/05 03:59:03;;;;;;;7.30;6.60;;;;;;;19.30;63.74;99334.81;5011782;28;20041;-71
2022/06/05 04:01:28;;;;;;;8.38;5.80;;;;;;;19.29;63.92;99327.75;5011173;28;20122;-71
2022/06/05 04:03:55;;;;;;;8.07;7.28;;;;;;;19.27;64.03;99327.91;5011390;28;20030;-70
2022/06/05 04:06:29;;;;;;;8.90;6.97;;;;;;;19.20;64.20;99332.13;5010784;28;20037;-71
2022/06/05 04:08:57;;;;;;;8.70;6.17;;;;;;;19.18;64.51;99323.41;5011676;28;20088;-72
2022/06/05 04:11:23;;;;;;;9.73;6.65;;;;;;;19.18;64.47;99325.25;5011358;28;20038;-72
2022/06/05 04:13:49;;;;;;;9.73;6.30;;;;;;;19.19;64.51;99319.75;5010878;28;20113;-71
2022/06/05 04:16:18;;;;;;;7.65;6.93;;;;;;;19.23;64.34;99326.50;5008679;28;20124;-71
2022/06/05 04:18:44;;;;;;;6.95;6.35;;;;;;;19.24;64.30;99341.53;4993715;28;20132;-71
2022/06/05 04:21:11;;;;;;;8.73;6.57;;;;;;;19.25;64.14;99347.75;5011182;28;20145;-71
2022/06/05 04:23:37;;;;;;;6.28;5.68;;;;;;;19.23;64.40;99360.41;5010760;28;20117;-72
2022/06/05 04:26:07;;;;;;;6.15;5.53;;;;;;;19.22;64.44;99358.69;5008827;28;20136;-71
2022/06/05 04:28:32;;;;;;;5.88;5.28;;;;;;;19.20;64.38;99369.53;5010782;28;20050;-72
2022/06/05 04:30:58;;;;;;;7.03;5.85;;;;;;;19.23;64.31;99366.59;5010943;28;20117;-72
2022/06/05 04:33:24;;;;;;;6.55;5.93;;;;;;;19.22;64.70;99377.41;5010685;28;20034;-72
2022/06/05 04:35:49;;;;;;;8.80;6.28;;;;;;;19.22;64.84;99388.09;5010014;28;20053;-71
2022/06/05 04:38:15;;;;;;;9.18;7.45;;;;;;;19.23;64.76;99387.97;5010282;28;20405;-72
2022/06/05 04:40:41;;;;;;;9.85;6.05;;;;;;;19.23;64.74;99387.13;5010716;28;20095;-71
2022/06/05 04:43:08;;;;;;;8.30;6.63;;;;;;;19.22;64.59;99390.75;5010407;28;20091;-71
2022/06/05 04:45:33;;;;;;;7.55;6.18;;;;;;;19.25;64.57;99394.03;5010484;28;20046;-71
2022/06/05 04:47:59;;;;;;;7.75;7.03;;;;;;;19.29;64.08;99389.22;5009842;28;20040;-71
2022/06/05 04:50:24;;;;;;;6.75;6.05;;;;;;;19.27;64.32;99392.06;5010179;28;20500;-71
2022/06/05 04:52:50;;;;;;;6.40;5.80;;;;;;;19.33;64.15;99385.28;5010327;28;20030;-71
2022/06/05 04:55:15;;;;;;;6.60;6.00;;;;;;;19.33;64.03;99385.28;5010283;28;20033;-71
2022/06/05 04:57:43;;;;;;;10.07;7.25;;;;;;;19.31;64.27;99379.25;5010520;28;20037;-71
2022/06/05 05:00:09;;;;;;;6.72;5.90;;;;;;;19.32;64.07;99383.63;5010698;28;20038;-71
2022/06/05 05:02:35;;;;;;;7.90;6.90;;;;;;;19.31;64.02;99372.06;5010662;28;20084;-71
2022/06/05 05:05:00;;;;;;;7.20;6.50;;;;;;;19.27;63.86;99375.16;5010292;28;20042;-71
2022/06/05 05:07:25;;;;;;;6.35;5.75;;;;;;;19.22;64.42;99367.59;5009685;28;20030;-71
2022/06/05 05:09:51;;;;;;;8.25;7.13;;;;;;;19.20;64.30;99368.72;5010076;28;20061;-71
2022/06/05 05:12:16;;;;;;;8.65;7.22;;;;;;;19.23;64.40;99365.75;5010369;28;20486;-71
2022/06/05 05:14:42;;;;;;;8.75;6.97;;;;;;;19.27;64.03;99361.78;5010284;28;20060;-71
2022/06/05 05:17:07;;;;;;;6.25;5.65;;;;;;;19.29;64.11;99360.66;5009412;28;20033;-71
2022/06/05 05:19:33;;;;;;;8.73;6.10;;;;;;;19.35;63.92;99363.78;5009806;28;20044;-71
2022/06/05 05:21:59;;;;;;;8.68;5.88;;;;;;;19.33;63.92;99355.06;5009914;28;20041;-71
2022/06/05 05:24:24;;;;;;;7.80;5.65;;;;;;;19.32;64.02;99359.56;5010008;28;20048;-71
2022/06/05 05:26:49;;;;;;;9.70;6.38;;;;;;;19.33;64.15;99355.88;5009111;28;20041;-71
2022/06/05 05:29:15;;;;;;;7.07;6.38;;;;;;;19.31;64.14;99363.19;5009947;28;20126;-71
2022/06/05 05:31:42;;;;;;;12.68;7.63;;;;;;;19.29;64.31;99360.66;4992703;28;20036;-72
2022/06/05 05:34:09;;;;;;;9.63;4.68;;;;;;;19.33;64.59;99358.56;5009839;28;20037;-71
2022/06/05 05:36:35;;;;;;;7.63;6.38;;;;;;;19.39;64.41;99359.81;5009143;28;20030;-71
2022/06/05 05:44:38;;;;;;;10.32;6.20;;;;;;;19.49;64.46;99337.44;5009562;28;20104;-71
2022/06/05 05:47:06;;;;;;;7.68;6.75;;;;;;;19.51;64.24;99335.44;5008960;28;20030;-71
2022/06/05 05:49:32;;;;;;;7.85;7.05;;;;;;;19.58;64.37;99333.06;5009355;28;20037;-71
2022/06/05 05:51:57;;;;;;;9.15;6.07;;;;;;;19.65;64.50;99327.97;5009277;28;20064;-71
2022/06/05 05:54:23;;;;;;;5.95;5.18;;;;;;;19.71;64.36;99324.75;5009387;28;20053;-71
2022/06/05 05:56:48;;;;;;;6.32;5.65;;;;;;;19.81;64.38;99322.03;5008510;28;20057;-71
2022/06/05 05:59:13;;;;;;;9.20;6.28;;;;;;;19.89;64.17;99319.50;5009324;28;20052;-70
2022/06/05 06:01:39;;;;;;;6.63;5.72;;;;;;;19.95;64.28;99314.38;5009832;28;20041;-71
2022/06/05 06:04:04;;;;;;;10.15;5.07;;;;;;;20.01;64.14;99301.41;5010094;28;20161;-71
2022/06/05 06:06:32;;;;;;;5.97;5.40;;;;;;;20.05;64.07;99300.94;5014352;28;20092;-71
2022/06/05 06:08:59;;;;;;;7.00;6.10;;;;;;;20.12;63.55;99286.00;5016018;28;20068;-72
2022/06/05 06:11:25;;;;;;;5.82;5.13;;;;;;;20.18;63.58;99292.56;5015797;28;20036;-71
2022/06/05 06:13:51;;;;;;;7.13;6.43;;;;;;;20.20;63.39;99290.59;5015767;28;20065;-72
2022/06/05 06:16:16;;;;;;;6.55;5.65;;;;;;;20.25;63.39;99290.97;5015414;28;20042;-71
2022/06/05 06:18:41;;;;;;;8.20;5.90;;;;;;;20.32;63.23;99292.06;5016104;28;20046;-71
2022/06/05 06:21:07;;;;;;;6.03;5.43;;;;;;;20.43;63.02;99290.19;5015624;28;20065;-71
2022/06/05 06:23:32;;;;;;;6.65;5.95;;;;;;;20.48;62.67;99290.59;5015594;28;20042;-71
2022/06/05 06:25:57;;;;;;;5.05;4.55;;;;;;;20.53;62.91;99293.66;5011809;28;20103;-71
2022/06/05 06:28:23;;;;;;;6.55;5.50;;;;;;;20.52;63.05;99289.28;5015207;28;20413;-71
2022/06/05 06:30:48;;;;;;;6.30;5.25;;;;;;;20.52;62.85;99290.13;5014019;28;20054;-71
2022/06/05 06:33:14;;;;;;;7.47;6.50;;;;;;;20.53;62.85;99280.28;5013861;28;20057;-72
2022/06/05 06:35:40;;;;;;;6.90;4.80;;;;;;;20.62;62.68;99279.38;4998309;28;20137;-72
2022/06/05 06:38:05;;;;;;;9.40;6.13;;;;;;;20.65;62.69;99279.09;5015152;28;20038;-71
2022/06/05 06:40:32;;;;;;;9.05;5.50;;;;;;;20.67;62.80;99276.22;5015333;28;20037;-71
2022/06/05 06:42:58;;;;;;;10.27;6.28;;;;;;;20.66;62.93;99280.75;5015527;28;20036;-71
2022/06/05 06:45:24;;;;;;;6.45;4.97;;;;;;;20.63;63.07;99272.19;5015461;28;20037;-71
2022/06/05 06:47:49;;;;;;;7.45;6.30;;;;;;;20.63;63.11;99269.50;5015007;28;20383;-72
2022/06/05 06:50:16;;;;;;;6.57;5.95;;;;;;;20.64;63.44;99265.84;5015171;28;20041;-72
2022/06/05 06:52:43;;;;;;;6.75;5.63;;;;;;;20.67;63.11;99266.34;5015729;28;20061;-71
2022/06/05 06:55:15;;;;;;;7.38;6.07;;;;;;;20.63;62.96;99272.19;5015864;28;20052;-71
2022/06/05 06:57:42;;;;;;;7.55;6.28;;;;;;;20.55;63.87;99268.44;5016149;28;20153;-70
2022/06/05 07:00:08;;;;;;;7.55;6.05;;;;;;;20.51;64.31;99269.69;5016746;28;20405;-71
2022/06/05 07:02:33;;;;;;;9.35;6.65;;;;;;;20.55;64.63;99272.94;5016246;28;20053;-71
2022/06/05 07:04:58;;;;;;;7.07;5.90;;;;;;;20.55;64.43;99262.22;5015211;28;20053;-71
2022/06/05 07:07:24;;;;;;;7.45;6.45;;;;;;;20.53;64.69;99267.72;5014917;28;20053;-71
2022/06/05 07:09:49;;;;;;;7.50;6.80;;;;;;;20.53;65.91;99270.38;5015493;28;20053;-71
2022/06/05 07:12:17;;;;;;;7.20;6.50;;;;;;;20.48;66.03;99261.13;5015450;28;20030;-72
2022/06/05 07:14:43;;;;;;;7.82;6.82;;;;;;;20.51;66.69;99263.50;5015682;28;20026;-72
2022/06/05 07:17:08;;;;;;;8.02;7.22;;;;;;;20.51;67.15;99261.66;5012343;28;20037;-72
2022/06/05 07:19:34;;;;;;;7.25;6.53;;;;;;;20.59;66.78;99260.94;5012449;28;20030;-71
2022/06/05 07:21:59;;;;;;;7.07;6.38;;;;;;;20.64;66.18;99264.00;5012051;28;20524;-72
2022/06/05 07:24:24;;;;;;;8.88;8.07;;;;;;;20.56;66.68;99261.25;5012103;28;20405;-70
2022/06/05 07:26:50;;;;;;;10.57;7.10;;;;;;;20.59;67.07;99264.44;5011689;28;20397;-71
2022/06/05 07:29:15;;;;;;;8.07;6.35;;;;;;;20.69;66.63;99264.38;5011790;28;20072;-71
2022/06/05 07:31:40;;;;;;;8.45;7.57;;;;;;;20.74;67.39;99272.78;5012351;28;20118;-71
2022/06/05 07:34:08;;;;;;;7.07;6.38;;;;;;;20.78;66.84;99267.97;5011960;28;20121;-70
2022/06/05 07:36:33;;;;;;;6.70;6.03;;;;;;;20.82;66.56;99272.00;5011164;28;20038;-71
2022/06/05 07:39:01;;;;;;;8.77;7.93;;;;;;;20.84;67.38;99272.72;5011612;28;20030;-71
2022/06/05 07:41:29;;;;;;;7.18;6.57;;;;;;;20.91;67.34;99268.41;5011709;28;20042;-71
2022/06/05 07:43:55;;;;;;;10.48;8.00;;;;;;;20.90;67.88;99265.91;5011782;28;20122;-70
2022/06/05 07:46:21;;;;;;;8.10;7.32;;;;;;;20.91;68.18;99265.75;5011028;28;20670;-70
2022/06/05 07:48:47;;;;;;;15.02;8.98;;;;;;;20.76;68.09;99264.59;5011831;28;20037;-70
2022/06/05 07:56:44;;;;;;;9.85;8.85;;;;;;;20.65;68.09;99257.66;5010249;28;20037;-72
2022/06/05 07:59:10;;;;;;;8.70;7.88;;;;;;;20.57;68.06;99260.22;5012095;28;20034;-70
2022/06/05 08:01:36;;;;;;;9.40;8.50;;;;;;;20.52;68.70;99257.97;5011595;28;20041;-72
2022/06/05 08:04:02;;;;;;;10.13;9.02;;;;;;;20.46;69.42;99263.97;5011122;28;20037;-70
2022/06/05 08:06:28;;;;;;;10.40;8.75;;;;;;;20.41;70.06;99260.91;5010396;28;20037;-71
2022/06/05 08:08:53;;;;;;;11.23;10.07;;;;;;;20.34;70.30;99266.00;5010926;28;20038;-71
2022/06/05 08:11:19;;;;;;;10.52;9.43;;;;;;;20.28;70.14;99261.25;5011057;28;20038;-71
2022/06/05 08:13:44;;;;;;;12.32;8.85;;;;;;;20.26;70.36;99257.88;5010928;28;20060;-71
2022/06/05 08:16:13;;;;;;;10.18;7.68;;;;;;;20.32;70.43;99259.94;5010927;28;20493;-71
2022/06/05 08:18:38;;;;;;;9.50;8.50;;;;;;;20.37;71.32;99268.38;5011074;28;20045;-71
2022/06/05 08:21:04;;;;;;;9.55;8.63;;;;;;;20.41;71.80;99262.72;4993656;28;20041;-71
2022/06/05 08:23:29;;;;;;;11.20;10.02;;;;;;;20.33;73.19;99261.66;5011222;28;20409;-71
2022/06/05 08:25:55;;;;;;;11.50;8.45;;;;;;;20.32;73.70;99256.44;5010377;28;20034;-71
2022/06/05 08:28:23;;;;;;;9.43;8.18;;;;;;;20.26;75.33;99257.88;5010326;28;20405;-71
2022/06/05 08:30:49;;;;;;;8.38;7.55;;;;;;;20.28;75.72;99260.41;5010914;28;20037;-71
2022/06/05 08:33:14;;;;;;;12.30;11.02;;;;;;;20.31;76.30;99268.16;5006455;28;20042;-72
2022/06/05 08:35:39;;;;;;;9.00;7.47;;;;;;;20.24;74.95;99272.41;4993594;28;20501;-72
2022/06/05 08:44:20;;;;;;;20.00;17.52;;;;;;;20.23;78.20;99268.03;4990794;28;20033;-71
2022/06/05 08:47:05;;;;;;;11.85;9.57;;;;;;;20.23;78.55;99263.56;4990514;28;20112;-72
2022/06/05 08:49:48;;;;;;;10.95;9.85;;;;;;;20.16;78.11;99251.75;4973626;28;20054;-71
2022/06/05 08:52:32;;;;;;;10.60;9.48;;;;;;;20.15;78.01;99255.41;4990661;28;20422;-71
2022/06/05 08:55:04;;;;;;;11.18;8.77;;;;;;;20.14;78.05;99251.06;4991138;28;20042;-71
2022/06/05 08:57:38;;;;;;;14.48;12.20;;;;;;;20.09;80.23;99256.84;4990195;28;20057;-71
2022/06/05 09:00:23;;;;;;;11.63;10.48;;;;;;;20.05;81.01;99254.63;4990769;28;20057;-71
2022/06/05 09:03:21;;;;;;;10.77;9.77;;;;;;;19.90;80.93;99251.59;4990840;28;20038;-71
2022/06/05 09:05:51;;;;;;;13.35;10.18;;;;;;;19.83;82.09;99251.34;4980970;28;20375;-71
2022/06/05 09:08:20;;;;;;;10.63;9.57;;;;;;;19.82;82.30;99249.66;4990311;28;20580;-71
2022/06/05 09:10:51;;;;;;;15.60;11.55;;;;;;;19.80;82.03;99248.97;4990328;28;20125;-72
2022/06/05 09:13:35;;;;;;;11.20;10.00;;;;;;;19.76;83.09;99254.75;4990404;28;20804;-72
2022/06/05 09:16:06;;;;;;;14.10;9.50;;;;;;;19.77;80.93;99264.50;4990267;28;20057;-70
2022/06/05 09:18:37;;;;;;;10.70;9.73;;;;;;;19.85;81.08;99272.63;4990568;28;20085;-71
2022/06/05 09:21:23;;;;;;;9.15;8.35;;;;;;;19.97;81.31;99275.94;4990033;28;20034;-72
2022/06/05 09:24:08;;;;;;;11.48;8.43;;;;;;;20.02;80.61;99273.66;4950141;28;20027;-72
2022/06/05 09:26:50;;;;;;;13.95;12.55;;;;;;;20.15;81.51;99266.94;4990175;28;20039;-72
2022/06/05 09:29:27;;;;;;;10.63;9.52;;;;;;;20.17;80.40;99264.13;4990004;28;20043;-71
2022/06/05 09:32:01;;;;;;;11.07;9.80;;;;;;;20.23;79.13;99263.56;4989760;28;20042;-72
2022/06/05 09:34:31;;;;;;;7.45;6.75;;;;;;;20.32;78.96;99269.81;4990231;28;20046;-72
2022/06/05 09:37:03;;;;;;;10.20;9.20;;;;;;;20.34;79.77;99267.84;4990555;28;20034;-73
2022/06/05 09:39:42;;;;;;;12.73;11.43;;;;;;;20.33;80.87;99272.34;4990308;28;20093;-72
2022/06/05 09:42:55;;;;;;;10.80;8.75;;;;;;;20.38;79.21;99270.06;4989760;28;20038;-71
2022/06/05 09:45:45;;;;;;;11.68;10.02;;;;;;;20.34;79.83;99263.31;4952073;28;20100;-72
2022/06/05 09:48:33;;;;;;;11.60;10.20;;;;;;;20.30;79.51;99263.78;4989408;28;20056;-70
2022/06/05 09:51:00;;;;;;;12.07;10.88;;;;;;;20.27;79.75;99259.56;4989491;28;20035;-72
2022/06/05 09:53:39;;;;;;;13.02;11.65;;;;;;;20.25;80.54;99253.50;4989795;28;20069;-71
2022/06/05 09:56:26;;;;;;;14.13;11.50;;;;;;;20.25;81.14;99248.16;4989230;28;20045;-71
2022/06/05 09:59:10;;;;;;;13.70;12.30;;;;;;;20.28;81.12;99247.88;4990063;28;20034;-71
2022/06/05 10:01:54;;;;;;;13.43;12.02;;;;;;;20.31;80.25;99239.53;4989633;28;20049;-72
2022/06/05 10:04:22;;;;;;;14.05;12.57;;;;;;;20.28;80.59;99233.63;4989296;28;20027;-72
2022/06/05 10:06:55;;;;;;;13.70;12.43;;;;;;;20.24;82.30;99230.44;4988923;28;20105;-71
2022/06/05 10:09:27;;;;;;;15.23;13.73;;;;;;;20.21;82.51;99217.34;4989915;28;20053;-71
2022/06/05 10:11:55;;;;;;;14.40;13.10;;;;;;;20.05;81.93;99222.50;4990026;28;20561;-71
2022/06/05 10:14:45;;;;;;;14.93;13.50;;;;;;;20.08;82.89;99214.19;4989760;28;20046;-71
2022/06/05 10:17:17;;;;;;;14.52;13.23;;;;;;;20.24;84.63;99211.69;4991493;28;20044;-72
2022/06/05 10:20:04;;;;;;;14.35;12.02;;;;;;;20.43;83.36;99207.16;5009126;28;20034;-72
2022/06/05 10:22:34;;;;;;;9.23;8.32;;;;;;;20.53;78.97;99210.63;5008873;28;20052;-71
2022/06/05 10:25:06;;;;;;;11.27;7.63;;;;;;;20.59;76.84;99210.88;5006237;28;20033;-71
2022/06/05 10:27:34;;;;;;;8.82;7.35;;;;;;;20.65;75.32;99205.91;4988953;28;20126;-72
2022/06/05 10:30:01;;;;;;;8.40;7.60;;;;;;;20.73;76.42;99197.94;4989411;28;20129;-71
2022/06/05 10:32:56;;;;;;;8.98;8.18;;;;;;;20.80;75.57;99199.00;5004082;28;20511;-73
2022/06/05 10:35:29;;;;;;;9.32;8.15;;;;;;;20.83;77.20;99195.19;5009023;28;20053;-73
2022/06/05 10:38:31;;;;;;;8.50;7.70;;;;;;;20.80;76.54;99193.66;5007947;28;20042;-71
2022/06/05 10:41:05;;;;;;;9.98;8.90;;;;;;;20.79;78.12;99190.09;5008601;28;20077;-71
2022/06/05 10:43:33;;;;;;;11.05;10.05;;;;;;;20.65;77.16;99185.34;5008434;28;20042;-70
2022/06/05 10:46:17;;;;;;;9.73;8.77;;;;;;;20.62;76.98;99184.78;5008191;28;20041;-70
2022/06/05 10:48:57;;;;;;;12.30;9.10;;;;;;;20.55;77.39;99182.75;5011513;28;20064;-70
2022/06/05 10:51:47;;;;;;;11.35;9.45;;;;;;;20.49;77.79;99185.97;5009619;28;20050;-71
2022/06/05 10:54:18;;;;;;;10.95;9.70;;;;;;;20.51;77.16;99180.50;5013109;28;20064;-70
2022/06/05 10:56:59;;;;;;;10.48;9.57;;;;;;;20.49;77.22;99171.75;5012051;28;20493;-71
2022/06/05 10:59:39;;;;;;;9.40;8.32;;;;;;;20.44;77.50;99180.25;5013302;28;20038;-72
2022/06/05 11:02:30;;;;;;;9.27;8.35;;;;;;;20.50;77.91;99166.25;5012798;28;20064;-71
2022/06/05 11:05:11;;;;;;;11.80;10.70;;;;;;;20.52;78.31;99152.69;5012614;28;20057;-71
2022/06/05 11:07:52;;;;;;;10.07;9.10;;;;;;;20.56;77.08;99146.91;5011782;28;20069;-71
2022/06/05 11:13:39;;;;;;;9.10;8.20;;;;;;;20.95;76.19;99141.16;5012698;28;20104;-70
2022/06/05 11:16:08;;;;;;;11.13;10.13;;;;;;;21.04;76.32;99125.13;5011875;28;20065;-71
2022/06/05 11:18:41;;;;;;;11.20;10.02;;;;;;;21.08;76.55;99123.81;5012295;28;20615;-72
2022/06/05 11:21:08;;;;;;;9.00;8.10;;;;;;;21.18;74.95;99113.81;5012406;28;20060;-72
2022/06/05 11:23:37;;;;;;;9.68;8.68;;;;;;;21.29;73.85;99116.22;5011999;28;20038;-72
2022/06/05 11:26:08;;;;;;;10.93;9.85;;;;;;;21.27;72.96;99104.81;5011514;28;20030;-72
2022/06/05 11:28:43;;;;;;;9.40;8.05;;;;;;;21.29;73.05;99100.16;5012621;28;20042;-72
2022/06/05 11:31:33;;;;;;;11.10;9.20;;;;;;;21.37;73.91;99100.16;5012330;28;20367;-71
2022/06/05 11:34:20;;;;;;;7.93;7.05;;;;;;;21.47;72.87;99096.56;5012391;28;20479;-71
2022/06/05 11:36:55;;;;;;;9.35;7.47;;;;;;;21.57;71.49;99090.03;5011534;28;20428;-71
2022/06/05 11:39:39;;;;;;;8.60;6.70;;;;;;;21.73;71.73;99085.72;5012035;28;20034;-71
2022/06/05 11:42:24;;;;;;;8.35;7.55;;;;;;;21.86;69.94;99081.56;5011918;28;20433;-71
2022/06/05 11:45:31;;;;;;;8.05;6.32;;;;;;;21.93;69.53;99083.56;5011769;28;20058;-70
2022/06/05 11:48:09;;;;;;;7.00;6.30;;;;;;;21.89;69.76;99077.72;5007965;28;20038;-71
2022/06/05 11:50:48;;;;;;;6.82;6.13;;;;;;;21.96;68.77;99078.72;5012023;28;20145;-71
2022/06/05 11:53:31;;;;;;;8.30;6.63;;;;;;;22.01;68.81;99081.75;4993630;28;20027;-71
2022/06/05 11:56:39;;;;;;;6.20;5.60;;;;;;;21.97;69.43;99071.50;4993361;28;20033;-71
2022/06/05 11:59:25;;;;;;;8.38;6.68;;;;;;;21.86;69.46;99065.47;4946641;28;20050;-71
2022/06/05 12:01:58;;;;;;;9.15;6.70;;;;;;;21.81;69.64;99064.28;4991878;28;20384;-71
2022/06/05 12:04:34;;;;;;;8.90;6.85;;;;;;;21.65;69.89;99057.03;4992060;28;20054;-71
2022/06/05 12:07:03;;;;;;;7.20;6.50;;;;;;;21.57;70.00;99060.53;4992675;28;20448;-71
2022/06/05 12:09:32;;;;;;;11.82;6.20;;;;;;;21.54;69.86;99050.16;5008935;28;20121;-72
2022/06/05 12:12:03;;;;;;;6.85;5.65;;;;;;;21.55;69.78;99051.81;5014148;28;20042;-72
2022/06/05 12:14:33;;;;;;;8.10;7.30;;;;;;;21.43;71.89;99045.06;5014128;28;20038;-72